Time;durP1;ratioP1;P1;durP2;ratioP2;P2;SDS_P1;SDS_P2;PMS_P1;PMS_P2;Temp;Humidity;BMP_temperature;BMP_pressure;BME280_temperature;BME280_humidity;BME280_pressure;Samples;Min_cycle;Max_cycle;Signal;HPM_P1;HPM_P2
2021/12/27 00:00:09;;;;;;;5.50;1.45;;;11.70;97.80;;;;;;4953461;28;20023;-64
2021/12/27 00:02:35;;;;;;;4.03;1.23;;;11.60;97.80;;;;;;4952477;28;20019;-64
2021/12/27 00:05:01;;;;;;;6.28;1.58;;;11.70;97.90;;;;;;4949844;28;20042;-65
2021/12/27 00:07:27;;;;;;;6.30;1.33;;;11.70;97.80;;;;;;4956499;28;20023;-64
2021/12/27 00:09:52;;;;;;;4.53;1.25;;;11.60;97.80;;;;;;4955529;28;20051;-64
2021/12/27 00:12:18;;;;;;;7.10;1.40;;;11.70;97.80;;;;;;4956594;28;20031;-64
2021/12/27 00:14:43;;;;;;;8.05;2.03;;;11.60;97.80;;;;;;4956619;28;20066;-64
2021/12/27 00:17:09;;;;;;;5.68;1.58;;;11.70;97.80;;;;;;4952592;28;20115;-64
2021/12/27 00:19:35;;;;;;;4.90;1.30;;;11.70;97.80;;;;;;4958170;28;20035;-64
2021/12/27 00:22:00;;;;;;;6.75;2.25;;;11.60;97.80;;;;;;4956307;28;20040;-65
2021/12/27 00:24:26;;;;;;;3.50;1.35;;;11.60;97.80;;;;;;4956688;28;20049;-64
2021/12/27 00:26:52;;;;;;;7.38;1.85;;;11.60;97.90;;;;;;4956476;28;20023;-64
2021/12/27 00:29:18;;;;;;;5.75;1.60;;;11.60;97.80;;;;;;4953118;28;20031;-64
2021/12/27 00:31:44;;;;;;;8.75;1.80;;;11.60;97.80;;;;;;4956635;28;20026;-64
2021/12/27 00:34:10;;;;;;;6.60;1.60;;;11.60;97.80;;;;;;4956558;28;20058;-64
2021/12/27 00:36:35;;;;;;;4.10;1.70;;;11.60;97.90;;;;;;4954862;28;20031;-64
2021/12/27 00:39:02;;;;;;;4.05;1.63;;;11.60;97.90;;;;;;4956327;28;20419;-64
2021/12/27 00:41:27;;;;;;;7.50;1.60;;;11.50;97.80;;;;;;4954164;28;20149;-64
2021/12/27 00:43:53;;;;;;;4.72;1.35;;;11.60;97.80;;;;;;4954650;28;20102;-64
2021/12/27 00:46:18;;;;;;;4.78;1.75;;;11.60;97.80;;;;;;4957724;28;20106;-64
2021/12/27 00:48:44;;;;;;;6.05;1.73;;;11.60;97.80;;;;;;4955782;28;20042;-64
2021/12/27 00:51:10;;;;;;;4.20;1.20;;;11.60;97.70;;;;;;4956256;28;20035;-64
2021/12/27 00:53:36;;;;;;;4.28;1.23;;;11.50;97.80;;;;;;4955074;28;20038;-64
2021/12/27 00:56:02;;;;;;;3.90;1.50;;;11.50;97.80;;;;;;4952948;28;20087;-64
2021/12/27 00:58:27;;;;;;;4.65;1.20;;;11.50;97.80;;;;;;4957929;28;20038;-64
2021/12/27 01:00:53;;;;;;;4.68;1.60;;;11.40;97.80;;;;;;4954707;28;20035;-64
2021/12/27 01:03:20;;;;;;;7.07;1.30;;;11.40;97.90;;;;;;4955393;28;20023;-65
2021/12/27 01:05:46;;;;;;;3.40;1.20;;;11.40;97.90;;;;;;4956064;28;20487;-64
2021/12/27 01:08:12;;;;;;;6.60;1.48;;;11.40;97.90;;;;;;4950578;28;20090;-64
2021/12/27 01:16:13;;;;;;;6.15;1.55;;;11.40;98.00;;;;;;5012238;28;20120;-64
2021/12/27 01:18:44;;;;;;;3.58;1.20;;;11.40;97.80;;;;;;5010403;28;20045;-64
2021/12/27 01:21:11;;;;;;;6.22;1.70;;;11.30;97.90;;;;;;5011798;28;20038;-64
2021/12/27 01:23:37;;;;;;;7.03;1.55;;;11.30;97.90;;;;;;5011893;28;20030;-64
2021/12/27 01:26:03;;;;;;;5.15;1.42;;;11.30;98.00;;;;;;5011636;28;20114;-64
2021/12/27 01:28:29;;;;;;;5.65;1.70;;;11.30;97.90;;;;;;5012452;28;20109;-64
2021/12/27 01:30:55;;;;;;;5.00;1.45;;;11.30;98.00;;;;;;5011747;28;20034;-64
2021/12/27 01:33:23;;;;;;;6.15;1.67;;;11.30;98.40;;;;;;5011173;28;20148;-64
2021/12/27 01:35:49;;;;;;;5.05;2.00;;;11.30;97.90;;;;;;5011650;28;20037;-64
2021/12/27 01:38:15;;;;;;;5.90;1.90;;;11.30;98.00;;;;;;5011722;28;20503;-63
2021/12/27 01:40:43;;;;;;;7.03;2.15;;;11.30;98.00;;;;;;5012138;28;20062;-64
2021/12/27 01:43:11;;;;;;;6.25;2.17;;;11.30;98.00;;;;;;5011591;28;20064;-64
2021/12/27 01:45:43;;;;;;;7.05;1.80;;;11.20;98.00;;;;;;5011399;28;20495;-64
2021/12/27 01:48:09;;;;;;;6.65;1.60;;;11.30;97.90;;;;;;4947318;28;20034;-64
2021/12/27 01:50:42;;;;;;;10.90;2.13;;;11.30;97.90;;;;;;4954287;28;20031;-65
2021/12/27 01:53:09;;;;;;;8.07;2.22;;;11.30;97.90;;;;;;4951092;28;20036;-64
2021/12/27 01:55:36;;;;;;;5.93;1.75;;;11.30;97.90;;;;;;4957132;28;20030;-64
2021/12/27 01:58:03;;;;;;;4.72;1.42;;;11.30;97.90;;;;;;4954981;28;20048;-64
2021/12/27 02:00:29;;;;;;;4.28;1.80;;;11.30;97.90;;;;;;4955157;28;20098;-64
2021/12/27 02:02:54;;;;;;;5.63;2.00;;;11.20;97.80;;;;;;4954654;28;20114;-64
2021/12/27 02:05:20;;;;;;;4.55;1.80;;;11.30;98.30;;;;;;4951747;28;20446;-64
2021/12/27 02:07:46;;;;;;;6.47;2.08;;;11.30;97.80;;;;;;4955124;28;20418;-64
2021/12/27 02:10:13;;;;;;;5.15;1.85;;;11.30;97.90;;;;;;4954040;28;20062;-63
2021/12/27 02:12:39;;;;;;;6.38;1.88;;;11.30;97.80;;;;;;4954859;28;20072;-63
2021/12/27 02:15:09;;;;;;;6.60;2.00;;;11.30;97.80;;;;;;4953679;28;20450;-64
2021/12/27 02:17:37;;;;;;;4.18;1.55;;;11.30;97.80;;;;;;4953268;28;20042;-64
2021/12/27 02:20:16;;;;;;;4.93;1.90;;;11.20;97.80;;;;;;4951531;28;20036;-64
2021/12/27 02:22:43;;;;;;;2.70;1.33;;;11.20;97.80;;;;;;4964247;28;20050;-64
2021/12/27 02:25:10;;;;;;;5.07;1.75;;;11.20;97.90;;;;;;4953953;28;20023;-64
2021/12/27 02:27:36;;;;;;;4.57;1.65;;;11.30;98.00;;;;;;4953476;28;20027;-64
2021/12/27 02:30:06;;;;;;;5.10;2.03;;;11.20;97.80;;;;;;4953879;28;20034;-64
2021/12/27 02:32:32;;;;;;;4.50;1.90;;;11.20;97.80;;;;;;4953106;28;20027;-63
2021/12/27 02:34:57;;;;;;;7.20;1.90;;;11.20;97.80;;;;;;4951965;28;20050;-63
2021/12/27 02:37:23;;;;;;;5.65;1.70;;;11.20;97.90;;;;;;4956573;28;20377;-64
2021/12/27 02:39:49;;;;;;;7.53;1.88;;;11.20;98.10;;;;;;4954664;28;20160;-63
2021/12/27 02:42:21;;;;;;;6.10;1.88;;;11.10;99.00;;;;;;4954536;28;20485;-63
2021/12/27 02:44:46;;;;;;;7.68;2.22;;;11.10;98.60;;;;;;4954113;28;20027;-63
2021/12/27 02:47:15;;;;;;;4.65;1.52;;;11.10;98.60;;;;;;4950529;28;20032;-63
2021/12/27 02:49:41;;;;;;;4.95;1.60;;;11.10;98.80;;;;;;4955626;28;20027;-63
2021/12/27 02:52:07;;;;;;;6.35;1.58;;;11.00;98.70;;;;;;4954302;28;20031;-63
2021/12/27 02:54:33;;;;;;;4.35;1.30;;;11.00;98.80;;;;;;4954299;28;20023;-63
2021/12/27 02:56:59;;;;;;;3.47;1.40;;;11.00;98.90;;;;;;4954306;28;20039;-63
2021/12/27 02:59:24;;;;;;;7.70;1.75;;;11.00;98.80;;;;;;4951147;28;20078;-63
2021/12/27 03:01:50;;;;;;;4.35;1.55;;;10.90;98.80;;;;;;4953477;28;20117;-63
2021/12/27 03:04:15;;;;;;;5.32;1.70;;;10.90;98.80;;;;;;4955166;28;20114;-64
2021/12/27 03:06:41;;;;;;;3.75;1.20;;;11.00;99.00;;;;;;4954193;28;20106;-64
2021/12/27 03:09:07;;;;;;;4.18;1.40;;;10.90;99.10;;;;;;4954165;28;20084;-63
2021/12/27 03:11:32;;;;;;;6.63;1.40;;;10.90;99.20;;;;;;4952380;28;20042;-63
2021/12/27 03:13:58;;;;;;;4.40;1.30;;;10.90;99.10;;;;;;4950799;28;20023;-64
2021/12/27 03:16:25;;;;;;;4.00;1.27;;;10.80;99.00;;;;;;4955852;28;20102;-64
2021/12/27 03:18:54;;;;;;;3.95;1.20;;;10.80;99.20;;;;;;4953903;28;20067;-64
2021/12/27 03:21:20;;;;;;;5.57;1.70;;;10.70;99.30;;;;;;4953853;28;20102;-64
2021/12/27 03:23:47;;;;;;;4.45;1.52;;;10.70;99.40;;;;;;4953641;28;20029;-63
2021/12/27 03:26:13;;;;;;;6.18;1.77;;;10.70;99.40;;;;;;4949946;28;20023;-64
2021/12/27 03:28:40;;;;;;;4.43;1.58;;;10.70;99.40;;;;;;4954993;28;20041;-64
2021/12/27 03:31:07;;;;;;;3.28;1.45;;;10.70;99.40;;;;;;4953759;28;20404;-63
2021/12/27 03:33:33;;;;;;;5.72;1.75;;;10.70;99.50;;;;;;4953649;28;20027;-64
2021/12/27 03:36:09;;;;;;;3.72;1.63;;;10.60;99.50;;;;;;4953649;28;20079;-64
2021/12/27 03:38:39;;;;;;;2.85;1.38;;;10.70;99.50;;;;;;4952609;28;20404;-64
2021/12/27 03:41:07;;;;;;;4.85;1.60;;;10.70;99.50;;;;;;4949847;28;20035;-64
2021/12/27 03:43:33;;;;;;;5.75;1.88;;;10.70;99.50;;;;;;4954490;28;20023;-64
2021/12/27 03:45:58;;;;;;;4.93;1.63;;;10.70;99.50;;;;;;4953337;28;20027;-64
2021/12/27 03:48:24;;;;;;;4.85;1.50;;;10.70;99.40;;;;;;4952386;28;20122;-64
2021/12/27 03:50:50;;;;;;;5.03;1.58;;;10.70;99.60;;;;;;4953481;28;20050;-64
2021/12/27 03:53:16;;;;;;;3.33;1.77;;;10.70;99.50;;;;;;4949837;28;20031;-64
2021/12/27 03:55:42;;;;;;;3.30;1.23;;;10.70;99.40;;;;;;4953429;28;20488;-64
2021/12/27 03:58:23;;;;;;;5.70;2.00;;;10.70;99.80;;;;;;4953259;28;20043;-64
2021/12/27 04:03:21;;;;;;;3.75;1.50;;;10.70;99.60;;;;;;4953213;28;20028;-64
2021/12/27 04:05:47;;;;;;;4.60;1.83;;;10.70;99.70;;;;;;4953446;28;20073;-64
2021/12/27 04:08:14;;;;;;;4.15;1.50;;;10.70;99.50;;;;;;4949406;28;20020;-64
2021/12/27 04:10:42;;;;;;;4.13;1.50;;;10.70;99.60;;;;;;4954610;28;20055;-64
2021/12/27 04:13:09;;;;;;;4.57;1.52;;;10.70;99.60;;;;;;4953226;28;20032;-64
2021/12/27 04:15:35;;;;;;;2.70;1.48;;;10.60;99.60;;;;;;4953214;28;20054;-65
2021/12/27 04:18:02;;;;;;;3.47;1.42;;;10.60;99.70;;;;;;4953114;28;20041;-64
2021/12/27 04:20:28;;;;;;;3.20;1.30;;;10.60;99.60;;;;;;4951191;28;20035;-64
2021/12/27 04:22:54;;;;;;;3.67;1.33;;;10.60;99.60;;;;;;4951096;28;20675;-64
2021/12/27 04:25:21;;;;;;;2.85;1.00;;;10.60;99.60;;;;;;4953611;28;20067;-64
2021/12/27 04:27:47;;;;;;;3.00;1.30;;;10.60;99.70;;;;;;4952761;28;20034;-64
2021/12/27 04:30:15;;;;;;;2.15;1.10;;;10.60;99.70;;;;;;4951816;28;20031;-64
2021/12/27 04:32:41;;;;;;;2.03;1.10;;;10.60;99.60;;;;;;4952685;28;20030;-64
2021/12/27 04:35:08;;;;;;;3.88;1.50;;;10.60;99.70;;;;;;4949121;28;20034;-64
2021/12/27 04:37:33;;;;;;;2.70;1.00;;;10.60;99.70;;;;;;4954903;28;20035;-65
2021/12/27 04:40:00;;;;;;;3.58;1.20;;;10.60;99.70;;;;;;4952856;28;20038;-65
2021/12/27 04:42:29;;;;;;;1.65;1.20;;;10.60;99.80;;;;;;4952401;28;20038;-65
2021/12/27 04:44:55;;;;;;;2.55;0.93;;;10.60;99.70;;;;;;4952931;28;20023;-65
2021/12/27 04:47:21;;;;;;;3.47;1.10;;;10.60;99.80;;;;;;4949771;28;20548;-65
2021/12/27 04:49:46;;;;;;;2.05;0.88;;;10.60;99.90;;;;;;4953184;28;20035;-65
2021/12/27 04:52:12;;;;;;;3.38;1.05;;;10.70;99.90;;;;;;4953329;28;20023;-65
2021/12/27 04:54:39;;;;;;;2.80;1.00;;;10.60;99.90;;;;;;4955543;28;20036;-65
2021/12/27 04:57:05;;;;;;;1.85;1.05;;;10.60;99.90;;;;;;4955717;28;20110;-65
2021/12/27 04:59:31;;;;;;;1.73;0.88;;;10.60;99.90;;;;;;4954310;28;20065;-65
2021/12/27 05:01:56;;;;;;;1.25;0.70;;;10.70;99.90;;;;;;4953505;28;20396;-65
2021/12/27 05:04:22;;;;;;;1.35;0.80;;;10.70;99.90;;;;;;4957848;28;20531;-65
2021/12/27 05:06:48;;;;;;;2.22;1.00;;;10.70;99.90;;;;;;4956017;28;20046;-65
2021/12/27 05:09:14;;;;;;;1.00;0.68;;;10.70;99.70;;;;;;4955775;28;20065;-65
2021/12/27 05:11:40;;;;;;;1.63;0.88;;;10.70;99.70;;;;;;4953591;28;20034;-65
2021/12/27 05:14:07;;;;;;;1.33;0.77;;;10.70;99.60;;;;;;4952112;28;20042;-65
2021/12/27 05:16:33;;;;;;;1.25;1.00;;;10.70;99.70;;;;;;4957601;28;20102;-65
2021/12/27 05:18:59;;;;;;;1.45;0.82;;;10.70;99.60;;;;;;4955769;28;20118;-65
2021/12/27 05:21:25;;;;;;;2.53;0.82;;;10.70;99.70;;;;;;4955551;28;20468;-65
2021/12/27 05:23:51;;;;;;;1.23;0.75;;;10.80;99.80;;;;;;4955522;28;20031;-65
2021/12/27 05:26:18;;;;;;;1.60;0.70;;;10.70;99.80;;;;;;4951884;28;20042;-65
2021/12/27 05:28:43;;;;;;;3.45;0.90;;;10.80;99.80;;;;;;4956253;28;20066;-65
2021/12/27 05:31:09;;;;;;;1.58;0.80;;;10.80;99.80;;;;;;4956140;28;20047;-65
2021/12/27 05:33:35;;;;;;;1.83;0.73;;;10.80;99.70;;;;;;4955501;28;20062;-65
2021/12/27 05:36:01;;;;;;;1.30;0.70;;;10.80;99.70;;;;;;4955236;28;20037;-65
2021/12/27 05:38:26;;;;;;;1.90;0.60;;;10.80;99.70;;;;;;4953196;28;20085;-65
2021/12/27 05:40:54;;;;;;;1.50;0.88;;;10.80;99.80;;;;;;4953837;28;20027;-65
2021/12/27 05:43:21;;;;;;;1.83;0.68;;;10.90;99.80;;;;;;4955757;28;20027;-65
2021/12/27 05:45:46;;;;;;;1.30;0.80;;;10.80;99.70;;;;;;4955337;28;20049;-65
2021/12/27 05:48:12;;;;;;;1.92;0.75;;;10.80;99.70;;;;;;4955341;28;20392;-65
2021/12/27 05:50:38;;;;;;;1.02;0.60;;;10.80;99.70;;;;;;4954593;28;20129;-65
2021/12/27 05:53:04;;;;;;;0.90;0.60;;;10.80;99.70;;;;;;4951515;28;20089;-65
2021/12/27 05:55:30;;;;;;;1.75;0.73;;;10.90;99.70;;;;;;4957183;28;20110;-64
2021/12/27 05:57:55;;;;;;;2.30;0.90;;;10.90;99.70;;;;;;4955024;28;20027;-65
2021/12/27 06:00:21;;;;;;;2.75;0.90;;;10.90;99.70;;;;;;4952059;28;20100;-65
2021/12/27 06:02:48;;;;;;;1.85;0.90;;;10.90;99.70;;;;;;4954970;28;20029;-65
2021/12/27 06:05:14;;;;;;;1.30;0.68;;;11.00;99.70;;;;;;4950413;28;20039;-65
2021/12/27 06:07:40;;;;;;;2.03;0.77;;;11.00;99.60;;;;;;4956214;28;20027;-65
2021/12/27 06:10:06;;;;;;;1.83;0.75;;;11.00;99.60;;;;;;4954735;28;20096;-64
2021/12/27 06:12:33;;;;;;;2.92;0.70;;;11.00;99.60;;;;;;4954868;28;20412;-64
2021/12/27 06:14:59;;;;;;;2.20;0.90;;;11.00;99.60;;;;;;4954809;28;20460;-64
2021/12/27 06:17:25;;;;;;;1.58;0.68;;;11.10;99.60;;;;;;4952216;28;20106;-64
2021/12/27 06:19:50;;;;;;;1.90;0.80;;;11.10;99.70;;;;;;4952816;28;20487;-64
2021/12/27 06:22:18;;;;;;;2.03;0.70;;;11.10;99.70;;;;;;4955683;28;20949;-63
2021/12/27 06:24:44;;;;;;;1.92;0.80;;;11.10;99.80;;;;;;4954682;28;20031;-64
2021/12/27 06:27:09;;;;;;;1.73;0.85;;;11.10;99.60;;;;;;4954787;28;20081;-64
2021/12/27 06:29:35;;;;;;;1.13;0.50;;;11.10;99.50;;;;;;4953542;28;20038;-64
2021/12/27 06:32:01;;;;;;;2.10;0.60;;;11.20;99.50;;;;;;4951665;28;20041;-64
2021/12/27 06:34:26;;;;;;;0.93;0.40;;;11.20;99.50;;;;;;4956707;28;20105;-64
2021/12/27 06:36:52;;;;;;;2.47;0.60;;;11.20;99.60;;;;;;4952857;28;20067;-64
2021/12/27 06:39:18;;;;;;;1.50;0.52;;;11.20;99.50;;;;;;4954355;28;20035;-64
2021/12/27 06:41:43;;;;;;;2.17;0.82;;;11.20;99.50;;;;;;4954300;28;20022;-64
2021/12/27 06:44:09;;;;;;;2.17;0.70;;;11.20;99.50;;;;;;4950322;28;20553;-63
2021/12/27 06:46:35;;;;;;;1.23;0.63;;;11.20;99.40;;;;;;4956244;28;20085;-65
2021/12/27 06:49:01;;;;;;;2.13;0.70;;;11.20;99.50;;;;;;4954496;28;20110;-63
2021/12/27 06:51:26;;;;;;;2.47;0.68;;;11.20;99.50;;;;;;4952651;28;20456;-64
2021/12/27 06:53:52;;;;;;;4.60;0.80;;;11.20;99.50;;;;;;4954448;28;20069;-64
2021/12/27 06:56:18;;;;;;;3.72;0.63;;;11.20;99.50;;;;;;4950864;28;20458;-64
2021/12/27 06:58:43;;;;;;;4.85;0.82;;;11.20;99.50;;;;;;4955079;28;20031;-64
2021/12/27 07:01:09;;;;;;;5.65;0.88;;;11.20;99.50;;;;;;4954802;28;20027;-64
2021/12/27 07:03:35;;;;;;;4.63;1.42;;;11.20;99.50;;;;;;4954107;28;20046;-64
2021/12/27 07:06:01;;;;;;;4.38;0.88;;;11.30;99.50;;;;;;4953744;28;20058;-64
2021/12/27 07:08:27;;;;;;;5.28;1.35;;;11.30;99.50;;;;;;4951620;28;20049;-64
2021/12/27 07:10:53;;;;;;;4.55;1.05;;;11.30;99.50;;;;;;4952791;28;20051;-64
2021/12/27 07:13:19;;;;;;;9.30;0.95;;;11.30;99.50;;;;;;4955426;28;20031;-64
2021/12/27 07:15:45;;;;;;;5.82;1.42;;;11.30;99.50;;;;;;4953887;28;20110;-64
2021/12/27 07:18:12;;;;;;;4.30;1.05;;;11.30;99.60;;;;;;4952776;28;20043;-64
2021/12/27 07:20:39;;;;;;;9.25;1.23;;;11.30;99.50;;;;;;4952815;28;20027;-64
2021/12/27 07:23:07;;;;;;;8.95;1.50;;;11.40;99.50;;;;;;4950305;28;20042;-64
2021/12/27 07:25:33;;;;;;;8.70;1.25;;;11.30;99.50;;;;;;4955856;28;20027;-64
2021/12/27 07:27:59;;;;;;;10.10;1.48;;;11.30;99.50;;;;;;4953670;28;20062;-64
2021/12/27 07:30:28;;;;;;;7.00;1.27;;;11.30;99.50;;;;;;4953823;28;20396;-64
2021/12/27 07:32:55;;;;;;;9.02;1.30;;;11.30;99.50;;;;;;4953775;28;20113;-64
2021/12/27 07:35:21;;;;;;;6.72;1.30;;;11.30;99.60;;;;;;4950298;28;20050;-64
2021/12/27 07:37:47;;;;;;;7.20;1.30;;;11.30;99.50;;;;;;4953857;28;20105;-64
2021/12/27 07:40:14;;;;;;;10.45;1.98;;;11.30;99.50;;;;;;4954245;28;20487;-64
2021/12/27 07:42:40;;;;;;;9.07;1.80;;;11.40;99.60;;;;;;4953556;28;20031;-64
2021/12/27 07:45:06;;;;;;;10.13;1.45;;;11.40;99.60;;;;;;4953603;28;20069;-64
2021/12/27 07:47:32;;;;;;;7.80;1.40;;;11.40;99.50;;;;;;4952006;28;20038;-64
2021/12/27 07:49:58;;;;;;;8.68;1.85;;;11.50;99.60;;;;;;4950617;28;20027;-64
2021/12/27 07:52:24;;;;;;;13.50;1.73;;;11.50;99.60;;;;;;4955327;28;20089;-64
2021/12/27 07:54:50;;;;;;;12.13;1.98;;;11.50;99.60;;;;;;4953656;28;20023;-64
2021/12/27 07:57:15;;;;;;;8.43;1.45;;;11.50;99.60;;;;;;4953372;28;20054;-64
2021/12/27 07:59:42;;;;;;;7.68;1.25;;;11.50;99.50;;;;;;4951760;28;20124;-64
2021/12/27 08:02:10;;;;;;;7.45;1.50;;;11.60;99.50;;;;;;4949479;28;20035;-64
2021/12/27 08:04:37;;;;;;;9.60;2.08;;;11.60;99.90;;;;;;4954950;28;20015;-64
2021/12/27 08:07:03;;;;;;;8.95;1.52;;;11.60;99.60;;;;;;4953392;28;20070;-64
2021/12/27 08:09:29;;;;;;;6.55;1.63;;;11.60;99.60;;;;;;4953091;28;20069;-64
2021/12/27 08:11:55;;;;;;;8.40;1.90;;;11.60;99.40;;;;;;4953346;28;20058;-64
2021/12/27 08:14:20;;;;;;;10.55;1.75;;;11.60;99.40;;;;;;4950120;28;20106;-64
2021/12/27 08:16:46;;;;;;;8.20;1.58;;;11.60;99.40;;;;;;4953332;28;20487;-64
2021/12/27 08:19:12;;;;;;;7.53;1.45;;;11.60;99.40;;;;;;4953588;28;20031;-65
2021/12/27 08:21:38;;;;;;;15.27;2.60;;;11.60;99.40;;;;;;4953039;28;20031;-64
2021/12/27 08:24:08;;;;;;;12.15;1.83;;;11.60;99.40;;;;;;4953033;28;20487;-64
2021/12/27 08:26:34;;;;;;;8.35;2.15;;;11.60;99.40;;;;;;4951872;28;20364;-64
2021/12/27 08:29:03;;;;;;;18.27;3.03;;;11.70;99.40;;;;;;4952349;28;20027;-64
2021/12/27 08:31:29;;;;;;;14.07;1.95;;;11.70;99.40;;;;;;4958505;28;20039;-64
2021/12/27 08:33:55;;;;;;;21.17;2.80;;;11.70;99.40;;;;;;4956076;28;20027;-64
2021/12/27 08:36:21;;;;;;;13.32;1.98;;;11.70;99.40;;;;;;4956288;28;20453;-64
2021/12/27 08:38:48;;;;;;;17.23;3.20;;;11.70;99.40;;;;;;4956279;28;20037;-64
2021/12/27 08:41:15;;;;;;;14.77;3.00;;;11.80;99.30;;;;;;4952294;28;20095;-64
2021/12/27 08:43:42;;;;;;;15.48;2.63;;;11.80;99.30;;;;;;4958015;28;20085;-64
2021/12/27 08:46:08;;;;;;;14.75;2.40;;;11.80;99.10;;;;;;4956481;28;20038;-65
2021/12/27 08:48:34;;;;;;;20.38;3.25;;;11.80;99.20;;;;;;4955893;28;20032;-64
2021/12/27 08:51:01;;;;;;;14.73;3.10;;;11.80;99.20;;;;;;4956155;28;20041;-64
2021/12/27 08:53:26;;;;;;;17.83;2.83;;;11.80;99.10;;;;;;4953711;28;20024;-64
2021/12/27 08:55:52;;;;;;;18.60;2.42;;;11.80;99.10;;;;;;4955130;28;20084;-64
2021/12/27 08:58:18;;;;;;;18.23;2.33;;;11.90;99.20;;;;;;4957040;28;20042;-64
2021/12/27 09:00:44;;;;;;;17.95;3.05;;;11.90;99.10;;;;;;4955930;28;20028;-64
2021/12/27 09:03:11;;;;;;;14.88;2.53;;;11.90;99.10;;;;;;4955534;28;20273;-64
2021/12/27 09:05:41;;;;;;;15.80;2.55;;;12.10;99.40;;;;;;4954963;28;20019;-64
2021/12/27 09:08:08;;;;;;;15.85;3.28;;;12.30;99.50;;;;;;4952203;28;20067;-64
2021/12/27 09:10:34;;;;;;;17.08;2.30;;;12.40;99.40;;;;;;4957554;28;20408;-64
2021/12/27 09:13:00;;;;;;;16.95;3.15;;;12.60;99.10;;;;;;4955793;28;20122;-64
2021/12/27 09:15:27;;;;;;;19.20;3.00;;;12.70;98.90;;;;;;4955590;28;20120;-64
2021/12/27 09:17:53;;;;;;;16.90;2.33;;;12.80;98.80;;;;;;4955400;28;20057;-64
2021/12/27 09:20:20;;;;;;;15.25;3.25;;;13.00;99.00;;;;;;4952350;28;20492;-64
2021/12/27 09:22:45;;;;;;;21.85;3.17;;;13.20;98.90;;;;;;4955899;28;20027;-64
2021/12/27 09:25:11;;;;;;;19.17;3.30;;;13.40;98.70;;;;;;4956468;28;20038;-64
2021/12/27 09:27:37;;;;;;;22.85;3.30;;;13.60;98.60;;;;;;4954341;28;20036;-64
2021/12/27 09:30:04;;;;;;;18.33;3.25;;;13.80;98.30;;;;;;4955461;28;20023;-64
2021/12/27 09:32:30;;;;;;;15.15;2.85;;;13.90;98.00;;;;;;4953149;28;20035;-64
2021/12/27 09:34:56;;;;;;;20.30;3.17;;;14.00;98.00;;;;;;4953634;28;20089;-64
2021/12/27 09:37:22;;;;;;;22.75;3.13;;;14.10;97.60;;;;;;4957240;28;20046;-64
2021/12/27 09:39:53;;;;;;;17.50;3.10;;;14.20;97.50;;;;;;4953147;28;20027;-64
2021/12/27 09:42:21;;;;;;;16.13;2.65;;;14.30;97.50;;;;;;4955339;28;20080;-64
2021/12/27 09:44:47;;;;;;;18.30;2.97;;;14.40;97.30;;;;;;4955345;28;20129;-63
2021/12/27 09:47:12;;;;;;;23.80;3.60;;;14.30;96.70;;;;;;4950810;28;20400;-64
2021/12/27 09:49:38;;;;;;;15.27;3.00;;;14.10;96.10;;;;;;4963822;28;20034;-64
2021/12/27 09:52:05;;;;;;;19.02;3.30;;;14.00;96.60;;;;;;4955522;28;20032;-64
2021/12/27 09:54:31;;;;;;;17.77;2.92;;;13.90;96.30;;;;;;4955075;28;20104;-64
2021/12/27 09:56:57;;;;;;;14.10;2.70;;;13.80;96.50;;;;;;4955107;28;20499;-64
2021/12/27 09:59:23;;;;;;;17.70;2.75;;;13.60;96.60;;;;;;4952061;28;20035;-64
2021/12/27 10:01:52;;;;;;;25.55;3.92;;;13.60;96.60;;;;;;4954355;28;20019;-64
2021/12/27 10:04:18;;;;;;;19.02;3.28;;;13.40;96.80;;;;;;4956094;28;20038;-64
2021/12/27 10:06:44;;;;;;;20.60;3.80;;;13.40;96.80;;;;;;4954960;28;20024;-64
2021/12/27 10:09:10;;;;;;;21.15;3.60;;;13.40;97.10;;;;;;4954885;28;20051;-64
2021/12/27 10:11:39;;;;;;;22.60;3.80;;;13.30;97.10;;;;;;4953606;28;20100;-64
2021/12/27 10:14:07;;;;;;;20.40;3.70;;;13.30;97.10;;;;;;4951219;28;20055;-64
2021/12/27 10:16:38;;;;;;;28.10;4.03;;;13.30;97.10;;;;;;4956670;28;20085;-64
2021/12/27 10:19:07;;;;;;;16.02;3.13;;;13.20;97.20;;;;;;4954890;28;20039;-64
2021/12/27 10:21:33;;;;;;;21.23;3.60;;;13.20;97.10;;;;;;4954875;28;20024;-63
2021/12/27 10:24:16;;;;;;;27.63;4.35;;;13.20;97.10;;;;;;4954655;28;20538;-64
2021/12/27 10:26:46;;;;;;;27.05;4.00;;;13.20;97.10;;;;;;4954442;28;20022;-64
2021/12/27 10:29:17;;;;;;;24.63;4.00;;;13.20;97.20;;;;;;4935100;29;20081;-64
2021/12/27 10:31:50;;;;;;;24.35;3.85;;;13.20;97.40;;;;;;4963992;28;20357;-64
2021/12/27 10:34:16;;;;;;;26.88;4.47;;;13.30;97.50;;;;;;4955556;28;20123;-64
2021/12/27 10:37:06;;;;;;;17.77;2.95;;;13.40;97.50;;;;;;4953102;28;20122;-64
2021/12/27 10:39:56;;;;;;;22.70;3.90;;;13.60;97.90;;;;;;4953329;28;20134;-64
2021/12/27 10:42:27;;;;;;;22.13;3.15;;;13.90;97.80;;;;;;4954383;28;20019;-64
2021/12/27 10:44:56;;;;;;;17.00;3.22;;;14.10;97.60;;;;;;4954196;28;20023;-64
2021/12/27 10:47:27;;;;;;;18.17;3.05;;;14.20;97.00;;;;;;4951274;28;20019;-63
2021/12/27 10:49:53;;;;;;;20.30;3.20;;;14.10;96.30;;;;;;4953392;28;20503;-63
2021/12/27 10:52:20;;;;;;;23.23;3.53;;;13.90;96.10;;;;;;4955323;28;20027;-63
2021/12/27 10:54:45;;;;;;;22.02;3.95;;;13.70;96.30;;;;;;4954323;28;20024;-63
2021/12/27 10:57:14;;;;;;;19.13;3.88;;;13.60;96.30;;;;;;4954217;28;20100;-63
2021/12/27 10:59:39;;;;;;;27.45;4.28;;;13.50;96.40;;;;;;4953158;28;20027;-63
2021/12/27 11:02:13;;;;;;;16.80;2.90;;;13.40;96.50;;;;;;4950620;28;20035;-63
2021/12/27 11:04:40;;;;;;;17.77;2.80;;;13.30;96.60;;;;;;4956035;28;20015;-63
2021/12/27 11:07:06;;;;;;;20.27;3.28;;;13.30;96.70;;;;;;4954177;28;20045;-63
2021/12/27 11:09:33;;;;;;;25.05;4.10;;;13.20;96.70;;;;;;4953866;28;20051;-63
2021/12/27 11:12:00;;;;;;;21.88;3.25;;;13.20;96.80;;;;;;4953407;28;20031;-64
2021/12/27 11:14:25;;;;;;;22.30;3.88;;;13.20;96.90;;;;;;4951550;28;20081;-63
2021/12/27 11:16:53;;;;;;;26.30;4.03;;;13.10;96.80;;;;;;4953188;28;20035;-64
2021/12/27 11:19:19;;;;;;;18.05;3.35;;;13.10;97.30;;;;;;4955323;28;20023;-63
2021/12/27 11:21:48;;;;;;;22.60;3.65;;;13.10;96.80;;;;;;4953759;28;20028;-64
2021/12/27 11:24:15;;;;;;;19.33;3.17;;;13.10;96.70;;;;;;4953922;28;20020;-63
2021/12/27 11:26:42;;;;;;;22.40;3.45;;;13.20;97.10;;;;;;4951583;28;20031;-64
2021/12/27 11:29:09;;;;;;;20.33;3.50;;;13.70;98.60;;;;;;4950096;28;20019;-64
2021/12/27 11:31:36;;;;;;;17.80;3.50;;;14.40;99.00;;;;;;4955587;28;20507;-64
2021/12/27 11:34:05;;;;;;;22.02;3.33;;;14.80;97.80;;;;;;4953698;28;20434;-64
2021/12/27 11:36:39;;;;;;;19.88;3.88;;;15.00;96.60;;;;;;4953644;28;20035;-64
2021/12/27 11:39:30;;;;;;;18.88;4.00;;;14.90;95.00;;;;;;4953652;28;20068;-64
2021/12/27 11:42:09;;;;;;;17.70;3.38;;;14.70;95.00;;;;;;4953188;28;20023;-64
2021/12/27 11:44:44;;;;;;;22.52;4.22;;;14.70;95.60;;;;;;4952250;28;20042;-64
2021/12/27 11:47:11;;;;;;;18.40;4.05;;;14.70;95.30;;;;;;4949564;28;20141;-64
2021/12/27 11:49:59;;;;;;;17.33;3.58;;;14.70;95.90;;;;;;4955382;28;20048;-64
2021/12/27 11:52:29;;;;;;;21.35;3.95;;;14.80;95.20;;;;;;4953486;28;20041;-64
2021/12/27 11:54:55;;;;;;;23.60;3.72;;;14.70;94.90;;;;;;4952299;28;20081;-64
2021/12/27 11:57:54;;;;;;;22.10;4.15;;;14.60;95.40;;;;;;4953056;28;20031;-64
2021/12/27 12:00:28;;;;;;;29.58;4.82;;;14.60;95.70;;;;;;4953663;28;20037;-64
2021/12/27 12:02:55;;;;;;;23.40;4.53;;;14.60;95.40;;;;;;4953777;28;20023;-64
2021/12/27 12:05:44;;;;;;;24.42;3.92;;;14.60;95.10;;;;;;4952476;28;20024;-64
2021/12/27 12:08:30;;;;;;;19.33;4.43;;;14.60;95.30;;;;;;4953056;28;22216;-64
2021/12/27 12:11:01;;;;;;;20.75;3.10;;;14.50;94.80;;;;;;4965880;28;20055;-64
2021/12/27 12:13:39;;;;;;;20.10;3.13;;;14.40;94.80;;;;;;4957120;28;20023;-64
2021/12/27 12:16:23;;;;;;;20.58;3.50;;;14.30;95.00;;;;;;4956543;28;20016;-64
2021/12/27 12:18:51;;;;;;;20.38;3.75;;;14.20;95.20;;;;;;4956581;28;20038;-64
2021/12/27 12:21:32;;;;;;;20.70;3.78;;;14.10;95.20;;;;;;4956635;28;20488;-64
2021/12/27 12:24:01;;;;;;;19.63;3.83;;;14.00;95.30;;;;;;4956657;28;20081;-64
2021/12/27 12:26:28;;;;;;;19.90;3.50;;;13.90;95.40;;;;;;4953762;28;20383;-64
2021/12/27 12:29:03;;;;;;;23.25;3.28;;;13.90;95.50;;;;;;4954824;28;20114;-64
2021/12/27 12:31:31;;;;;;;19.92;3.60;;;13.90;95.60;;;;;;4957297;28;20453;-64
2021/12/27 12:34:09;;;;;;;20.52;3.42;;;13.90;95.50;;;;;;4956379;28;20031;-64
2021/12/27 12:36:49;;;;;;;21.63;3.70;;;13.90;95.50;;;;;;4956285;28;20023;-64
2021/12/27 12:39:16;;;;;;;20.15;3.38;;;14.00;95.20;;;;;;4955915;28;20032;-64
2021/12/27 12:41:42;;;;;;;22.48;4.75;;;14.00;95.20;;;;;;4956076;28;20023;-64
2021/12/27 12:44:08;;;;;;;20.77;3.35;;;14.00;95.30;;;;;;4952435;28;20400;-64
2021/12/27 12:46:41;;;;;;;22.95;3.33;;;14.00;95.30;;;;;;4956986;28;20123;-63
2021/12/27 12:49:22;;;;;;;25.85;4.00;;;14.20;95.60;;;;;;4954890;28;20034;-64
2021/12/27 12:51:56;;;;;;;17.30;3.35;;;14.30;95.10;;;;;;4956194;28;20141;-63